Hovedside
METAR-TAF:

METAR-TAF

Lufthavner :

Port Sudan, Sudan

breddegrad: 19-26N, lengdegrad: 037-14E, høyde over havet: 138 m

METAR: fraværende

Tid: 17:51 (15:51 UTC)

Varsel

Denne rapporten ble laget for 16 timer og 51 minutter siden, klokken 23:00 UTC
Varsel gyldig fra 31. klokken 00 UTC til 01. klokken 06 UTC
Vind 10 kt fra Øst-sørøst
Sikt 10 km eller mer
Få skyer i en høyde av 3000 ft
Spredte skyer i en høyde av 13000 ft
Midlertidig
fra 31. klokken 12 UTC til 31. klokken 18 UTC
Vind 10 kt fra Vest-nordvest med vindkast opp mot 20 kt
Sikt: 8000 m
torden, regn
Blir
fra 01. klokken 00 UTC til 01. klokken 02 UTC
Vind 10 kt fra Vest-nordvest med vindkast opp mot 20 kt
Sikt 10 km eller mer
Få skyer i en høyde av 3000 ft
Spredte skyer i en høyde av 13000 ft

TAF: HSPN 302300Z 3100/0106 12010KT 9999 FEW030 SCT130 TEMPO 3112/3118 30010G20KT 8000 TSRA BECMG 0100/0102 30010G20KT 9999 FEW030 SCT130

Værobservasjoner og værvarsel for over 4000 flyplasser (METAR- og TAF-rapporter).

Tilgjengelige stasjoner er representert av de røde og gule prikkene på kartet.

Hold musepekeren over prikken for å se navnet på stasjonen.

Klikk så for å se værobservasjoner og -varsler.

For å forandre kartet kan du klikke på den grønne knappen med svart kryss for å zoome inn, på den grønne knappen med strek for å zoome ut, eller på de grønne pilene for å se tilstøtende kart.


METAR-TAF: